Řízení letového provozu České republiky
Letiste: LKCV Aktualizace: 11.12.2019 04:00:25  UTC
 METAR LKCV 11.12. 04:00 ...
METAR LKCV 110400Z 13004KT CAVOK M04/M05 Q1021 NOSIG RMK BLU BLU=
 TAF LKCV 10.12. 23:00 ...
TAF LKCV 102300Z 1100/1200 VRB02KT CAVOK      PROB30 1103/1108 3000 BR NSC      BECMG 1106/1108 13008KT=